Moscow, Vermont
Current Conditions -  °F | °C
As of 7:54 PM on Wednesday 17 Dec 2014 (Local Time) from KMVL Reporting Station
Haze Haze  
Wind Chill: 34°   Ceiling: 2500
Heat Index: 34°   Visibility: 5mi
Dew Point: 32°   Wind: 0mph
Humidity: 92%   Direction: NA
Pressure: 29.75"   Gusts: NA
Location:  44.44°N, 72.72°W
Report Text: KMVL 180054Z AUTO 00000KT 5SM BR FEW002 BKN025 OVC035 01/00 A2975 RMK AO2 RAE04 SLP082 P0000 T00110000 TSNO
Loading
Personal Weather Stations






























Interactive Weather Map New forecast layout! Learn more

10-Day Weather Forecast

Advertisements
Track Severe Weather on mobile